sensor_id;sensor_type;location;lat;lon;timestamp;temperature;humidity
20345;DHT22;10330;48.816;9.278;2022-12-29T00:00:22;9.70;99.90
20345;DHT22;10330;48.816;9.278;2022-12-29T00:02:49;9.80;99.90
20345;DHT22;10330;48.816;9.278;2022-12-29T00:05:15;9.90;99.90
20345;DHT22;10330;48.816;9.278;2022-12-29T00:07:41;9.90;99.90
20345;DHT22;10330;48.816;9.278;2022-12-29T00:10:08;10.00;99.90
20345;DHT22;10330;48.816;9.278;2022-12-29T00:12:34;10.00;99.90
20345;DHT22;10330;48.816;9.278;2022-12-29T00:15:19;10.10;99.90
20345;DHT22;10330;48.816;9.278;2022-12-29T00:18:03;10.10;99.90
20345;DHT22;10330;48.816;9.278;2022-12-29T00:20:29;10.20;99.90
20345;DHT22;10330;48.816;9.278;2022-12-29T00:23:17;10.20;99.90
20345;DHT22;10330;48.816;9.278;2022-12-29T00:26:03;10.10;99.90
20345;DHT22;10330;48.816;9.278;2022-12-29T00:28:50;10.10;99.90
20345;DHT22;10330;48.816;9.278;2022-12-29T00:31:39;10.10;99.90
20345;DHT22;10330;48.816;9.278;2022-12-29T00:34:24;10.20;99.90
20345;DHT22;10330;48.816;9.278;2022-12-29T00:37:10;10.30;99.90
20345;DHT22;10330;48.816;9.278;2022-12-29T00:39:36;10.30;99.90
20345;DHT22;10330;48.816;9.278;2022-12-29T00:42:21;10.30;99.90
20345;DHT22;10330;48.816;9.278;2022-12-29T00:45:06;10.40;99.90
20345;DHT22;10330;48.816;9.278;2022-12-29T00:47:32;10.40;99.90
20345;DHT22;10330;48.816;9.278;2022-12-29T00:49:58;10.30;99.90
20345;DHT22;10330;48.816;9.278;2022-12-29T00:52:24;10.40;99.90
20345;DHT22;10330;48.816;9.278;2022-12-29T00:54:51;10.30;99.90
20345;DHT22;10330;48.816;9.278;2022-12-29T00:57:18;10.30;99.90
20345;DHT22;10330;48.816;9.278;2022-12-29T00:59:44;10.30;99.90
20345;DHT22;10330;48.816;9.278;2022-12-29T01:02:11;10.40;99.90
20345;DHT22;10330;48.816;9.278;2022-12-29T01:04:37;10.40;99.90
20345;DHT22;10330;48.816;9.278;2022-12-29T01:07:03;10.40;99.90
20345;DHT22;10330;48.816;9.278;2022-12-29T01:09:31;10.40;99.90
20345;DHT22;10330;48.816;9.278;2022-12-29T01:12:16;10.40;99.90
20345;DHT22;10330;48.816;9.278;2022-12-29T01:14:42;10.40;99.90
20345;DHT22;10330;48.816;9.278;2022-12-29T01:17:08;10.40;99.90
20345;DHT22;10330;48.816;9.278;2022-12-29T01:19:35;10.40;99.90
20345;DHT22;10330;48.816;9.278;2022-12-29T01:22:01;10.40;99.90
20345;DHT22;10330;48.816;9.278;2022-12-29T01:24:27;10.30;99.90
20345;DHT22;10330;48.816;9.278;2022-12-29T01:26:54;10.30;99.90
20345;DHT22;10330;48.816;9.278;2022-12-29T01:29:20;10.30;99.90
20345;DHT22;10330;48.816;9.278;2022-12-29T01:31:46;10.30;99.90
20345;DHT22;10330;48.816;9.278;2022-12-29T01:34:13;10.20;99.90
20345;DHT22;10330;48.816;9.278;2022-12-29T01:36:39;10.20;99.90
20345;DHT22;10330;48.816;9.278;2022-12-29T01:39:05;10.20;99.90
20345;DHT22;10330;48.816;9.278;2022-12-29T01:41:32;10.20;99.90
20345;DHT22;10330;48.816;9.278;2022-12-29T01:44:00;10.20;99.90
20345;DHT22;10330;48.816;9.278;2022-12-29T01:46:37;10.20;99.90
20345;DHT22;10330;48.816;9.278;2022-12-29T01:51:44;10.20;99.90
20345;DHT22;10330;48.816;9.278;2022-12-29T01:54:21;10.30;99.90
20345;DHT22;10330;48.816;9.278;2022-12-29T01:56:50;10.40;99.90
20345;DHT22;10330;48.816;9.278;2022-12-29T01:59:20;10.40;99.90
20345;DHT22;10330;48.816;9.278;2022-12-29T02:01:49;10.50;99.90
20345;DHT22;10330;48.816;9.278;2022-12-29T02:04:16;10.50;99.90
20345;DHT22;10330;48.816;9.278;2022-12-29T02:07:07;10.50;99.90
20345;DHT22;10330;48.816;9.278;2022-12-29T02:09:32;10.50;99.90
20345;DHT22;10330;48.816;9.278;2022-12-29T02:11:59;10.50;99.90
20345;DHT22;10330;48.816;9.278;2022-12-29T02:14:26;10.50;99.90
20345;DHT22;10330;48.816;9.278;2022-12-29T02:32:07;10.70;99.90
20345;DHT22;10330;48.816;9.278;2022-12-29T02:35:05;10.80;99.90
20345;DHT22;10330;48.816;9.278;2022-12-29T02:40:46;10.90;99.90
20345;DHT22;10330;48.816;9.278;2022-12-29T02:46:41;10.90;99.90
20345;DHT22;10330;48.816;9.278;2022-12-29T02:51:58;11.00;99.90
20345;DHT22;10330;48.816;9.278;2022-12-29T02:54:26;11.00;99.90
20345;DHT22;10330;48.816;9.278;2022-12-29T02:57:33;11.00;99.90
20345;DHT22;10330;48.816;9.278;2022-12-29T03:11:27;11.10;99.90
20345;DHT22;10330;48.816;9.278;2022-12-29T03:17:23;11.10;99.90
20345;DHT22;10330;48.816;9.278;2022-12-29T03:19:51;11.10;99.90
20345;DHT22;10330;48.816;9.278;2022-12-29T03:22:25;11.10;99.90
20345;DHT22;10330;48.816;9.278;2022-12-29T03:25:07;11.10;99.90
20345;DHT22;10330;48.816;9.278;2022-12-29T03:27:45;11.10;99.90
20345;DHT22;10330;48.816;9.278;2022-12-29T03:30:13;11.10;99.90
20345;DHT22;10330;48.816;9.278;2022-12-29T03:33:01;11.20;99.90
20345;DHT22;10330;48.816;9.278;2022-12-29T03:35:33;11.10;99.90
20345;DHT22;10330;48.816;9.278;2022-12-29T03:38:10;11.10;99.90
20345;DHT22;10330;48.816;9.278;2022-12-29T03:40:42;11.10;99.90
20345;DHT22;10330;48.816;9.278;2022-12-29T03:43:11;11.10;99.90
20345;DHT22;10330;48.816;9.278;2022-12-29T03:45:40;11.10;99.90
20345;DHT22;10330;48.816;9.278;2022-12-29T03:48:07;11.10;99.90
20345;DHT22;10330;48.816;9.278;2022-12-29T03:50:37;11.20;99.90
20345;DHT22;10330;48.816;9.278;2022-12-29T03:53:03;11.20;99.90
20345;DHT22;10330;48.816;9.278;2022-12-29T03:55:30;11.20;99.90
20345;DHT22;10330;48.816;9.278;2022-12-29T03:57:56;11.30;99.90
20345;DHT22;10330;48.816;9.278;2022-12-29T04:00:35;11.40;99.90
20345;DHT22;10330;48.816;9.278;2022-12-29T04:03:01;11.40;99.90
20345;DHT22;10330;48.816;9.278;2022-12-29T04:05:28;11.40;99.90
20345;DHT22;10330;48.816;9.278;2022-12-29T04:07:55;11.40;99.90
20345;DHT22;10330;48.816;9.278;2022-12-29T04:10:21;11.40;99.90
20345;DHT22;10330;48.816;9.278;2022-12-29T04:12:50;11.30;99.90
20345;DHT22;10330;48.816;9.278;2022-12-29T04:15:35;11.20;99.90
20345;DHT22;10330;48.816;9.278;2022-12-29T04:18:01;11.10;99.90
20345;DHT22;10330;48.816;9.278;2022-12-29T04:20:28;11.20;99.90
20345;DHT22;10330;48.816;9.278;2022-12-29T04:23:13;11.20;99.90
20345;DHT22;10330;48.816;9.278;2022-12-29T04:25:39;11.20;99.90
20345;DHT22;10330;48.816;9.278;2022-12-29T04:28:08;11.20;99.90
20345;DHT22;10330;48.816;9.278;2022-12-29T04:30:37;11.20;99.90
20345;DHT22;10330;48.816;9.278;2022-12-29T04:33:23;11.30;99.90
20345;DHT22;10330;48.816;9.278;2022-12-29T04:35:50;11.20;99.90
20345;DHT22;10330;48.816;9.278;2022-12-29T04:38:18;11.20;99.90
20345;DHT22;10330;48.816;9.278;2022-12-29T04:40:45;11.20;99.90
20345;DHT22;10330;48.816;9.278;2022-12-29T04:43:12;11.20;99.90
20345;DHT22;10330;48.816;9.278;2022-12-29T04:46:02;11.20;99.90
20345;DHT22;10330;48.816;9.278;2022-12-29T04:48:35;11.20;99.90
20345;DHT22;10330;48.816;9.278;2022-12-29T04:51:17;11.20;99.90
20345;DHT22;10330;48.816;9.278;2022-12-29T04:53:44;11.20;99.90
20345;DHT22;10330;48.816;9.278;2022-12-29T04:56:10;11.20;99.90
20345;DHT22;10330;48.816;9.278;2022-12-29T04:58:37;11.30;99.90
20345;DHT22;10330;48.816;9.278;2022-12-29T05:01:05;11.20;99.90
20345;DHT22;10330;48.816;9.278;2022-12-29T05:03:31;11.30;99.90
20345;DHT22;10330;48.816;9.278;2022-12-29T05:05:57;11.20;99.90
20345;DHT22;10330;48.816;9.278;2022-12-29T05:08:24;11.20;99.90
20345;DHT22;10330;48.816;9.278;2022-12-29T05:10:52;11.30;99.90
20345;DHT22;10330;48.816;9.278;2022-12-29T05:13:19;11.20;99.90
20345;DHT22;10330;48.816;9.278;2022-12-29T05:15:51;11.30;99.90
20345;DHT22;10330;48.816;9.278;2022-12-29T05:18:18;11.30;99.90
20345;DHT22;10330;48.816;9.278;2022-12-29T05:20:45;11.30;99.90
20345;DHT22;10330;48.816;9.278;2022-12-29T05:23:12;11.30;99.90
20345;DHT22;10330;48.816;9.278;2022-12-29T05:25:40;11.30;99.90
20345;DHT22;10330;48.816;9.278;2022-12-29T05:28:30;11.30;99.90
20345;DHT22;10330;48.816;9.278;2022-12-29T05:31:09;11.40;99.90
20345;DHT22;10330;48.816;9.278;2022-12-29T05:33:35;11.30;99.90
20345;DHT22;10330;48.816;9.278;2022-12-29T05:36:07;11.20;99.90
20345;DHT22;10330;48.816;9.278;2022-12-29T05:38:35;11.20;99.90
20345;DHT22;10330;48.816;9.278;2022-12-29T05:41:01;11.20;99.90
20345;DHT22;10330;48.816;9.278;2022-12-29T05:43:54;11.20;99.90
20345;DHT22;10330;48.816;9.278;2022-12-29T05:46:29;11.30;99.90
20345;DHT22;10330;48.816;9.278;2022-12-29T05:49:17;11.10;99.90
20345;DHT22;10330;48.816;9.278;2022-12-29T05:51:58;11.20;99.90
20345;DHT22;10330;48.816;9.278;2022-12-29T05:54:24;11.20;99.90
20345;DHT22;10330;48.816;9.278;2022-12-29T05:56:52;11.20;99.90
20345;DHT22;10330;48.816;9.278;2022-12-29T05:59:20;11.20;99.90
20345;DHT22;10330;48.816;9.278;2022-12-29T06:01:47;11.20;99.90
20345;DHT22;10330;48.816;9.278;2022-12-29T06:04:13;11.20;99.90
20345;DHT22;10330;48.816;9.278;2022-12-29T06:06:40;11.20;99.90
20345;DHT22;10330;48.816;9.278;2022-12-29T06:09:11;11.20;99.90
20345;DHT22;10330;48.816;9.278;2022-12-29T06:11:37;11.10;99.90
20345;DHT22;10330;48.816;9.278;2022-12-29T06:14:03;11.10;99.90
20345;DHT22;10330;48.816;9.278;2022-12-29T06:16:30;11.10;99.90
20345;DHT22;10330;48.816;9.278;2022-12-29T06:19:00;11.10;99.90
20345;DHT22;10330;48.816;9.278;2022-12-29T06:21:26;11.10;99.90
20345;DHT22;10330;48.816;9.278;2022-12-29T06:23:52;11.00;99.90
20345;DHT22;10330;48.816;9.278;2022-12-29T06:26:20;11.00;99.90
20345;DHT22;10330;48.816;9.278;2022-12-29T06:28:47;11.30;99.90
20345;DHT22;10330;48.816;9.278;2022-12-29T06:31:14;11.20;99.90
20345;DHT22;10330;48.816;9.278;2022-12-29T06:33:40;11.20;99.90
20345;DHT22;10330;48.816;9.278;2022-12-29T06:36:09;11.20;99.90
20345;DHT22;10330;48.816;9.278;2022-12-29T06:38:35;11.10;99.90
20345;DHT22;10330;48.816;9.278;2022-12-29T06:41:02;11.10;99.90
20345;DHT22;10330;48.816;9.278;2022-12-29T06:43:47;11.10;99.90
20345;DHT22;10330;48.816;9.278;2022-12-29T06:46:23;11.00;99.90
20345;DHT22;10330;48.816;9.278;2022-12-29T06:48:49;11.00;99.90
20345;DHT22;10330;48.816;9.278;2022-12-29T06:51:15;11.00;99.90
20345;DHT22;10330;48.816;9.278;2022-12-29T06:53:41;11.00;99.90
20345;DHT22;10330;48.816;9.278;2022-12-29T06:56:10;11.00;99.90
20345;DHT22;10330;48.816;9.278;2022-12-29T06:58:40;11.00;99.90
20345;DHT22;10330;48.816;9.278;2022-12-29T07:01:08;10.90;99.90
20345;DHT22;10330;48.816;9.278;2022-12-29T07:03:35;10.90;99.90
20345;DHT22;10330;48.816;9.278;2022-12-29T07:06:02;10.90;99.90
20345;DHT22;10330;48.816;9.278;2022-12-29T07:08:29;10.90;99.90
20345;DHT22;10330;48.816;9.278;2022-12-29T07:11:01;10.90;99.90
20345;DHT22;10330;48.816;9.278;2022-12-29T07:13:27;11.00;99.90
20345;DHT22;10330;48.816;9.278;2022-12-29T07:15:54;10.90;99.90
20345;DHT22;10330;48.816;9.278;2022-12-29T07:18:20;10.90;99.90
20345;DHT22;10330;48.816;9.278;2022-12-29T07:20:46;10.90;99.90
20345;DHT22;10330;48.816;9.278;2022-12-29T07:23:12;10.90;99.90
20345;DHT22;10330;48.816;9.278;2022-12-29T07:25:38;10.90;99.90
20345;DHT22;10330;48.816;9.278;2022-12-29T07:28:07;10.90;99.90
20345;DHT22;10330;48.816;9.278;2022-12-29T07:30:33;10.80;99.90
20345;DHT22;10330;48.816;9.278;2022-12-29T07:32:59;10.90;99.90
20345;DHT22;10330;48.816;9.278;2022-12-29T07:35:26;10.80;99.90
20345;DHT22;10330;48.816;9.278;2022-12-29T07:37:52;10.80;99.90
20345;DHT22;10330;48.816;9.278;2022-12-29T07:40:18;10.90;99.90
20345;DHT22;10330;48.816;9.278;2022-12-29T07:42:44;10.90;99.90
20345;DHT22;10330;48.816;9.278;2022-12-29T07:45:12;11.00;99.90
20345;DHT22;10330;48.816;9.278;2022-12-29T07:47:50;10.90;99.90
20345;DHT22;10330;48.816;9.278;2022-12-29T07:50:16;10.90;99.90
20345;DHT22;10330;48.816;9.278;2022-12-29T07:52:43;10.90;99.90
20345;DHT22;10330;48.816;9.278;2022-12-29T07:55:10;10.90;99.90
20345;DHT22;10330;48.816;9.278;2022-12-29T07:57:43;11.10;99.90
20345;DHT22;10330;48.816;9.278;2022-12-29T08:00:11;11.00;99.90
20345;DHT22;10330;48.816;9.278;2022-12-29T08:02:40;11.10;99.90
20345;DHT22;10330;48.816;9.278;2022-12-29T08:05:07;11.10;99.90
20345;DHT22;10330;48.816;9.278;2022-12-29T08:07:33;11.10;99.90
20345;DHT22;10330;48.816;9.278;2022-12-29T08:10:14;11.20;99.90
20345;DHT22;10330;48.816;9.278;2022-12-29T08:12:43;11.20;99.90
20345;DHT22;10330;48.816;9.278;2022-12-29T08:15:13;11.30;99.90
20345;DHT22;10330;48.816;9.278;2022-12-29T08:17:45;11.30;99.90
20345;DHT22;10330;48.816;9.278;2022-12-29T08:20:11;11.40;99.90
20345;DHT22;10330;48.816;9.278;2022-12-29T08:22:40;11.40;99.90
20345;DHT22;10330;48.816;9.278;2022-12-29T08:25:08;11.50;99.90
20345;DHT22;10330;48.816;9.278;2022-12-29T08:27:36;11.50;99.90
20345;DHT22;10330;48.816;9.278;2022-12-29T08:30:03;11.60;99.90
20345;DHT22;10330;48.816;9.278;2022-12-29T08:32:29;11.60;99.90
20345;DHT22;10330;48.816;9.278;2022-12-29T08:34:57;11.70;99.90
20345;DHT22;10330;48.816;9.278;2022-12-29T08:37:23;11.70;99.90
20345;DHT22;10330;48.816;9.278;2022-12-29T08:39:56;11.70;99.90
20345;DHT22;10330;48.816;9.278;2022-12-29T08:42:23;11.70;99.90
20345;DHT22;10330;48.816;9.278;2022-12-29T08:44:51;11.70;99.90
20345;DHT22;10330;48.816;9.278;2022-12-29T08:47:17;11.80;99.90
20345;DHT22;10330;48.816;9.278;2022-12-29T08:49:43;11.80;99.90
20345;DHT22;10330;48.816;9.278;2022-12-29T08:52:10;11.90;99.90
20345;DHT22;10330;48.816;9.278;2022-12-29T08:54:36;11.90;99.90
20345;DHT22;10330;48.816;9.278;2022-12-29T08:57:02;11.90;99.90
20345;DHT22;10330;48.816;9.278;2022-12-29T08:59:36;11.90;99.90
20345;DHT22;10330;48.816;9.278;2022-12-29T09:02:03;12.00;99.90
20345;DHT22;10330;48.816;9.278;2022-12-29T09:04:30;12.00;99.90
20345;DHT22;10330;48.816;9.278;2022-12-29T09:06:56;12.00;99.90
20345;DHT22;10330;48.816;9.278;2022-12-29T09:09:22;12.10;99.90
20345;DHT22;10330;48.816;9.278;2022-12-29T09:11:48;12.10;99.90
20345;DHT22;10330;48.816;9.278;2022-12-29T09:14:14;12.10;99.90
20345;DHT22;10330;48.816;9.278;2022-12-29T09:16:41;12.10;99.90
20345;DHT22;10330;48.816;9.278;2022-12-29T09:19:26;12.20;99.90
20345;DHT22;10330;48.816;9.278;2022-12-29T09:21:52;12.20;99.90
20345;DHT22;10330;48.816;9.278;2022-12-29T09:24:18;12.20;99.90
20345;DHT22;10330;48.816;9.278;2022-12-29T09:26:45;12.20;99.90
20345;DHT22;10330;48.816;9.278;2022-12-29T09:29:11;12.20;99.90
20345;DHT22;10330;48.816;9.278;2022-12-29T09:31:37;12.20;99.90
20345;DHT22;10330;48.816;9.278;2022-12-29T09:34:03;12.20;99.90
20345;DHT22;10330;48.816;9.278;2022-12-29T09:36:29;12.20;99.90
20345;DHT22;10330;48.816;9.278;2022-12-29T09:38:56;12.30;99.90
20345;DHT22;10330;48.816;9.278;2022-12-29T09:47:19;12.40;99.90
20345;DHT22;10330;48.816;9.278;2022-12-29T09:52:22;12.60;99.90
20345;DHT22;10330;48.816;9.278;2022-12-29T09:57:44;12.70;99.90
20345;DHT22;10330;48.816;9.278;2022-12-29T10:00:22;12.70;99.90
20345;DHT22;10330;48.816;9.278;2022-12-29T10:02:56;12.80;99.90
20345;DHT22;10330;48.816;9.278;2022-12-29T10:05:35;12.90;99.90
20345;DHT22;10330;48.816;9.278;2022-12-29T10:08:17;12.90;99.90
20345;DHT22;10330;48.816;9.278;2022-12-29T10:11:11;12.80;99.90
20345;DHT22;10330;48.816;9.278;2022-12-29T10:13:54;12.80;99.90
20345;DHT22;10330;48.816;9.278;2022-12-29T10:16:36;12.80;99.90
20345;DHT22;10330;48.816;9.278;2022-12-29T10:22:31;12.70;99.90
20345;DHT22;10330;48.816;9.278;2022-12-29T10:25:04;12.70;99.90
20345;DHT22;10330;48.816;9.278;2022-12-29T10:27:38;12.70;99.90
20345;DHT22;10330;48.816;9.278;2022-12-29T10:30:05;12.70;99.90
20345;DHT22;10330;48.816;9.278;2022-12-29T10:32:39;12.70;99.90
20345;DHT22;10330;48.816;9.278;2022-12-29T10:35:22;12.70;99.90
20345;DHT22;10330;48.816;9.278;2022-12-29T10:38:04;12.70;99.90
20345;DHT22;10330;48.816;9.278;2022-12-29T10:43:51;12.70;99.90
20345;DHT22;10330;48.816;9.278;2022-12-29T10:46:25;12.80;99.90
20345;DHT22;10330;48.816;9.278;2022-12-29T10:48:53;12.80;99.90
20345;DHT22;10330;48.816;9.278;2022-12-29T10:51:29;12.90;99.90
20345;DHT22;10330;48.816;9.278;2022-12-29T10:57:01;13.00;99.90
20345;DHT22;10330;48.816;9.278;2022-12-29T10:59:31;13.10;99.90
20345;DHT22;10330;48.816;9.278;2022-12-29T11:02:20;13.10;99.90
20345;DHT22;10330;48.816;9.278;2022-12-29T11:07:36;13.50;99.90
20345;DHT22;10330;48.816;9.278;2022-12-29T11:10:21;13.60;99.90
20345;DHT22;10330;48.816;9.278;2022-12-29T11:13:03;13.70;99.90
20345;DHT22;10330;48.816;9.278;2022-12-29T11:15:58;13.70;99.90
20345;DHT22;10330;48.816;9.278;2022-12-29T11:18:34;13.70;99.90
20345;DHT22;10330;48.816;9.278;2022-12-29T11:26:50;13.70;99.90
20345;DHT22;10330;48.816;9.278;2022-12-29T11:29:27;13.60;99.90
20345;DHT22;10330;48.816;9.278;2022-12-29T11:31:55;13.60;99.90
20345;DHT22;10330;48.816;9.278;2022-12-29T11:34:24;13.50;99.90
20345;DHT22;10330;48.816;9.278;2022-12-29T11:37:03;13.60;99.90
20345;DHT22;10330;48.816;9.278;2022-12-29T11:42:02;13.50;99.90
20345;DHT22;10330;48.816;9.278;2022-12-29T11:44:34;13.50;99.90
20345;DHT22;10330;48.816;9.278;2022-12-29T11:47:04;13.50;99.90
20345;DHT22;10330;48.816;9.278;2022-12-29T11:49:31;13.50;99.90
20345;DHT22;10330;48.816;9.278;2022-12-29T11:52:03;13.40;99.90
20345;DHT22;10330;48.816;9.278;2022-12-29T11:54:36;13.30;99.90
20345;DHT22;10330;48.816;9.278;2022-12-29T11:57:13;13.20;99.90
20345;DHT22;10330;48.816;9.278;2022-12-29T11:59:50;13.10;99.90
20345;DHT22;10330;48.816;9.278;2022-12-29T12:02:37;12.90;99.90
20345;DHT22;10330;48.816;9.278;2022-12-29T12:08:39;12.70;99.90
20345;DHT22;10330;48.816;9.278;2022-12-29T12:11:26;12.70;99.90
20345;DHT22;10330;48.816;9.278;2022-12-29T12:17:00;12.60;99.90
20345;DHT22;10330;48.816;9.278;2022-12-29T12:19:41;12.60;99.90
20345;DHT22;10330;48.816;9.278;2022-12-29T12:22:29;12.60;99.90
20345;DHT22;10330;48.816;9.278;2022-12-29T12:25:23;12.50;99.90
20345;DHT22;10330;48.816;9.278;2022-12-29T12:28:00;12.50;99.90
20345;DHT22;10330;48.816;9.278;2022-12-29T12:30:37;12.60;99.90
20345;DHT22;10330;48.816;9.278;2022-12-29T12:33:16;12.60;99.90
20345;DHT22;10330;48.816;9.278;2022-12-29T12:35:52;12.60;99.90
20345;DHT22;10330;48.816;9.278;2022-12-29T12:46:56;12.90;99.90
20345;DHT22;10330;48.816;9.278;2022-12-29T12:58:12;12.90;99.90
20345;DHT22;10330;48.816;9.278;2022-12-29T13:12:01;13.60;99.90
20345;DHT22;10330;48.816;9.278;2022-12-29T13:20:29;14.30;99.90
20345;DHT22;10330;48.816;9.278;2022-12-29T13:23:02;14.10;99.90
20345;DHT22;10330;48.816;9.278;2022-12-29T13:25:41;14.00;99.90
20345;DHT22;10330;48.816;9.278;2022-12-29T13:31:24;14.10;99.90
20345;DHT22;10330;48.816;9.278;2022-12-29T13:36:53;13.60;99.90
20345;DHT22;10330;48.816;9.278;2022-12-29T13:39:42;13.30;99.90
20345;DHT22;10330;48.816;9.278;2022-12-29T13:42:16;13.20;99.90
20345;DHT22;10330;48.816;9.278;2022-12-29T13:45:03;13.00;99.90
20345;DHT22;10330;48.816;9.278;2022-12-29T13:47:40;12.90;99.90
20345;DHT22;10330;48.816;9.278;2022-12-29T13:50:19;12.80;99.90
20345;DHT22;10330;48.816;9.278;2022-12-29T13:58:35;12.80;99.90
20345;DHT22;10330;48.816;9.278;2022-12-29T14:01:34;12.70;99.90
20345;DHT22;10330;48.816;9.278;2022-12-29T14:04:12;12.60;99.90
20345;DHT22;10330;48.816;9.278;2022-12-29T14:06:39;12.60;99.90
20345;DHT22;10330;48.816;9.278;2022-12-29T14:11:58;12.50;99.90
20345;DHT22;10330;48.816;9.278;2022-12-29T14:14:29;12.50;99.90
20345;DHT22;10330;48.816;9.278;2022-12-29T14:17:12;12.60;99.90
20345;DHT22;10330;48.816;9.278;2022-12-29T14:19:41;12.60;99.90
20345;DHT22;10330;48.816;9.278;2022-12-29T14:22:10;12.60;99.90
20345;DHT22;10330;48.816;9.278;2022-12-29T14:24:41;12.60;99.90
20345;DHT22;10330;48.816;9.278;2022-12-29T14:34:58;12.50;99.90
20345;DHT22;10330;48.816;9.278;2022-12-29T14:37:33;12.50;99.90
20345;DHT22;10330;48.816;9.278;2022-12-29T14:40:22;12.60;99.90
20345;DHT22;10330;48.816;9.278;2022-12-29T14:42:51;12.50;99.90
20345;DHT22;10330;48.816;9.278;2022-12-29T14:47:46;12.40;99.90
20345;DHT22;10330;48.816;9.278;2022-12-29T14:50:16;12.50;99.90
20345;DHT22;10330;48.816;9.278;2022-12-29T14:52:52;12.40;99.90
20345;DHT22;10330;48.816;9.278;2022-12-29T14:55:36;12.30;99.90
20345;DHT22;10330;48.816;9.278;2022-12-29T14:58:06;12.30;99.90
20345;DHT22;10330;48.816;9.278;2022-12-29T15:00:38;12.30;99.90
20345;DHT22;10330;48.816;9.278;2022-12-29T15:05:46;12.30;99.90
20345;DHT22;10330;48.816;9.278;2022-12-29T15:08:18;12.20;99.90
20345;DHT22;10330;48.816;9.278;2022-12-29T15:10:51;12.20;99.90
20345;DHT22;10330;48.816;9.278;2022-12-29T15:13:23;12.20;99.90
20345;DHT22;10330;48.816;9.278;2022-12-29T15:15:51;12.20;99.90
20345;DHT22;10330;48.816;9.278;2022-12-29T15:18:25;12.20;99.90
20345;DHT22;10330;48.816;9.278;2022-12-29T15:20:55;12.20;99.90
20345;DHT22;10330;48.816;9.278;2022-12-29T15:23:21;12.20;99.90
20345;DHT22;10330;48.816;9.278;2022-12-29T15:25:53;12.20;99.90
20345;DHT22;10330;48.816;9.278;2022-12-29T15:28:21;12.10;99.90
20345;DHT22;10330;48.816;9.278;2022-12-29T15:31:03;12.10;99.90
20345;DHT22;10330;48.816;9.278;2022-12-29T15:33:30;12.10;99.90
20345;DHT22;10330;48.816;9.278;2022-12-29T15:36:01;12.10;99.90
20345;DHT22;10330;48.816;9.278;2022-12-29T15:38:30;12.10;99.90
20345;DHT22;10330;48.816;9.278;2022-12-29T15:46:54;12.10;99.90
20345;DHT22;10330;48.816;9.278;2022-12-29T15:49:21;12.10;99.90
20345;DHT22;10330;48.816;9.278;2022-12-29T15:51:49;12.10;99.90
20345;DHT22;10330;48.816;9.278;2022-12-29T15:54:18;12.00;99.90
20345;DHT22;10330;48.816;9.278;2022-12-29T15:56:45;12.00;99.90
20345;DHT22;10330;48.816;9.278;2022-12-29T15:59:33;11.80;99.90
20345;DHT22;10330;48.816;9.278;2022-12-29T16:02:01;11.40;99.90
20345;DHT22;10330;48.816;9.278;2022-12-29T16:04:32;11.10;99.90
20345;DHT22;10330;48.816;9.278;2022-12-29T16:09:35;10.60;99.90
20345;DHT22;10330;48.816;9.278;2022-12-29T16:12:13;10.50;99.90
20345;DHT22;10330;48.816;9.278;2022-12-29T16:31:04;10.50;99.90
20345;DHT22;10330;48.816;9.278;2022-12-29T16:36:30;10.50;99.90
20345;DHT22;10330;48.816;9.278;2022-12-29T16:39:24;10.50;99.90
20345;DHT22;10330;48.816;9.278;2022-12-29T16:41:55;10.50;99.90
20345;DHT22;10330;48.816;9.278;2022-12-29T16:44:24;10.50;99.90
20345;DHT22;10330;48.816;9.278;2022-12-29T16:47:03;10.50;99.90
20345;DHT22;10330;48.816;9.278;2022-12-29T16:49:34;10.60;99.90
20345;DHT22;10330;48.816;9.278;2022-12-29T16:55:21;10.50;99.90
20345;DHT22;10330;48.816;9.278;2022-12-29T16:57:52;10.50;99.90
20345;DHT22;10330;48.816;9.278;2022-12-29T17:00:37;10.40;99.90
20345;DHT22;10330;48.816;9.278;2022-12-29T18:04:16;9.70;99.90
20345;DHT22;10330;48.816;9.278;2022-12-29T18:06:44;9.70;99.90
20345;DHT22;10330;48.816;9.278;2022-12-29T18:09:12;9.70;99.90
20345;DHT22;10330;48.816;9.278;2022-12-29T18:11:40;9.70;99.90
20345;DHT22;10330;48.816;9.278;2022-12-29T18:14:12;9.60;99.90
20345;DHT22;10330;48.816;9.278;2022-12-29T18:16:39;9.60;99.90
20345;DHT22;10330;48.816;9.278;2022-12-29T18:19:06;9.70;99.90
20345;DHT22;10330;48.816;9.278;2022-12-29T18:21:32;9.60;99.90
20345;DHT22;10330;48.816;9.278;2022-12-29T18:23:58;9.60;99.90
20345;DHT22;10330;48.816;9.278;2022-12-29T18:26:26;9.50;99.90
20345;DHT22;10330;48.816;9.278;2022-12-29T18:28:54;9.50;99.90
20345;DHT22;10330;48.816;9.278;2022-12-29T18:31:23;9.40;99.90
20345;DHT22;10330;48.816;9.278;2022-12-29T18:33:51;9.40;99.90
20345;DHT22;10330;48.816;9.278;2022-12-29T18:36:18;9.30;99.90
20345;DHT22;10330;48.816;9.278;2022-12-29T18:38:44;9.40;99.90
20345;DHT22;10330;48.816;9.278;2022-12-29T18:41:19;9.30;99.90
20345;DHT22;10330;48.816;9.278;2022-12-29T18:43:46;9.20;99.90
20345;DHT22;10330;48.816;9.278;2022-12-29T18:46:13;9.20;99.90
20345;DHT22;10330;48.816;9.278;2022-12-29T18:48:40;9.20;99.90
20345;DHT22;10330;48.816;9.278;2022-12-29T18:51:11;9.20;99.90
20345;DHT22;10330;48.816;9.278;2022-12-29T18:53:39;9.30;99.90
20345;DHT22;10330;48.816;9.278;2022-12-29T18:56:06;9.20;99.90
20345;DHT22;10330;48.816;9.278;2022-12-29T18:58:35;9.30;99.90
20345;DHT22;10330;48.816;9.278;2022-12-29T19:01:01;9.30;99.90
20345;DHT22;10330;48.816;9.278;2022-12-29T19:03:27;9.30;99.90
20345;DHT22;10330;48.816;9.278;2022-12-29T19:05:53;9.30;99.90
20345;DHT22;10330;48.816;9.278;2022-12-29T19:08:20;9.30;99.90
20345;DHT22;10330;48.816;9.278;2022-12-29T19:10:46;9.30;99.90
20345;DHT22;10330;48.816;9.278;2022-12-29T19:13:20;9.30;99.90
20345;DHT22;10330;48.816;9.278;2022-12-29T19:15:55;9.30;99.90
20345;DHT22;10330;48.816;9.278;2022-12-29T19:18:24;9.30;99.90
20345;DHT22;10330;48.816;9.278;2022-12-29T19:20:52;9.40;99.90
20345;DHT22;10330;48.816;9.278;2022-12-29T19:23:21;9.30;99.90
20345;DHT22;10330;48.816;9.278;2022-12-29T19:25:49;9.20;99.90
20345;DHT22;10330;48.816;9.278;2022-12-29T19:28:21;9.20;99.90
20345;DHT22;10330;48.816;9.278;2022-12-29T19:30:49;9.20;99.90
20345;DHT22;10330;48.816;9.278;2022-12-29T19:33:16;9.10;99.90
20345;DHT22;10330;48.816;9.278;2022-12-29T19:35:43;9.10;99.90
20345;DHT22;10330;48.816;9.278;2022-12-29T19:38:10;9.10;99.90
20345;DHT22;10330;48.816;9.278;2022-12-29T19:40:41;9.10;99.90
20345;DHT22;10330;48.816;9.278;2022-12-29T19:43:12;9.10;99.90
20345;DHT22;10330;48.816;9.278;2022-12-29T19:48:59;9.00;99.90
20345;DHT22;10330;48.816;9.278;2022-12-29T19:51:26;9.00;99.90
20345;DHT22;10330;48.816;9.278;2022-12-29T19:53:54;9.00;99.90
20345;DHT22;10330;48.816;9.278;2022-12-29T19:56:26;8.90;99.90